Weather at Albuquerque Airport (1928) [CLOSED]

Public forecast

Using degrees Fahrenheit for public forecast. Weather courtesy of forecast.io.

Closest aviation weather report (METAR) to Albuquerque Airport (1928)

Closest report is Albuquerque International Sunport, 2.6 nm (4.8 km) W.

2024/07/25 18:52 (retrieved 1 hour ago)

KABQ 251852Z 22007KT 10SM FEW070 FEW200 29/11 A3034 RMK AO2 SLP183 CB DSNT NE AND W T02940111

Closest aviation forecast (TAF) to Albuquerque Airport (1928)

Closest forecast is Albuquerque International Sunport, 2.6 nm (4.8 km) W.

2024/07/25 18:27 (retrieved 1 hour ago)

TAF KABQ 251725Z 2518/2618 VRB06KT P6SM FEW120 FM252000 23006KT P6SM VCSH SCT120 FM252300 14012G20KT P6SM VCSH BKN120 TEMPO 2523/2603 VRB25G40KT -TSRA BKN100CB FM260300 13009KT P6SM BKN100 FM260900 VRB06KT P6SM SCT100